Time;durP1;ratioP1;P1;durP2;ratioP2;P2;SDS_P1;SDS_P2;PMS_P1;PMS_P2;Temp;Humidity;BMP_temperature;BMP_pressure;BME280_temperature;BME280_humidity;BME280_pressure;Samples;Min_cycle;Max_cycle;Signal;HPM_P1;HPM_P2
2022/02/21 00:01:32;;;;;;;2.70;2.40;;;;;;;;;;5037273;28;20238;-69
2022/02/21 00:04:00;;;;;;;3.13;2.10;;;;;;;;;;5036913;28;20286;-67
2022/02/21 00:06:30;;;;;;;3.53;2.07;;;;;;;;;;5036863;28;20330;-68
2022/02/21 00:08:58;;;;;;;2.37;2.03;;;;;;;;;;5037165;28;20271;-69
2022/02/21 00:11:26;;;;;;;4.07;2.50;;;;;;;;;;5036872;28;20274;-69
2022/02/21 00:13:54;;;;;;;3.93;2.20;;;;;;;;;;5036982;28;20666;-68
2022/02/21 00:16:22;;;;;;;3.17;2.20;;;;;;;;;;5036598;28;20283;-68
2022/02/21 00:18:50;;;;;;;2.90;2.10;;;;;;;;;;5036480;28;20686;-68
2022/02/21 00:21:18;;;;;;;3.17;2.33;;;;;;;;;;5036878;28;20305;-68
2022/02/21 00:23:47;;;;;;;3.13;2.17;;;;;;;;;;5037108;28;20211;-68
2022/02/21 00:26:15;;;;;;;2.33;2.10;;;;;;;;;;5036675;28;20637;-67
2022/02/21 00:28:43;;;;;;;3.27;2.30;;;;;;;;;;5036909;28;20694;-68
2022/02/21 00:31:11;;;;;;;2.93;2.30;;;;;;;;;;5037905;28;20271;-68
2022/02/21 00:33:39;;;;;;;3.63;1.97;;;;;;;;;;5040380;28;20290;-68
2022/02/21 00:36:07;;;;;;;5.40;2.00;;;;;;;;;;5039744;28;20243;-68
2022/02/21 00:38:35;;;;;;;3.77;2.10;;;;;;;;;;5040455;28;20263;-68
2022/02/21 00:41:05;;;;;;;3.17;2.20;;;;;;;;;;5023019;28;20291;-68
2022/02/21 00:43:33;;;;;;;4.03;1.90;;;;;;;;;;5020448;28;20680;-68
2022/02/21 00:46:01;;;;;;;2.73;1.83;;;;;;;;;;5020486;28;20267;-67
2022/02/21 00:48:29;;;;;;;3.07;2.03;;;;;;;;;;5020163;28;20239;-68
2022/02/21 00:50:57;;;;;;;3.33;1.97;;;;;;;;;;5020302;28;20247;-69
2022/02/21 00:53:25;;;;;;;2.23;1.70;;;;;;;;;;5020201;28;20291;-69
2022/02/21 00:55:53;;;;;;;2.37;1.67;;;;;;;;;;5026985;28;20319;-69
2022/02/21 00:58:22;;;;;;;4.63;2.07;;;;;;;;;;5040098;28;20290;-68
2022/02/21 01:00:50;;;;;;;2.53;1.70;;;;;;;;;;5040201;28;20314;-69
2022/02/21 01:03:18;;;;;;;5.07;2.57;;;;;;;;;;5039672;28;20223;-69
2022/02/21 01:05:46;;;;;;;4.20;1.40;;;;;;;;;;5039860;28;20314;-68
2022/02/21 01:08:14;;;;;;;5.13;1.83;;;;;;;;;;5039755;28;20290;-68
2022/02/21 01:10:42;;;;;;;2.03;1.70;;;;;;;;;;5039672;28;20267;-68
2022/02/21 01:13:11;;;;;;;1.90;1.50;;;;;;;;;;5039772;28;20739;-69
2022/02/21 01:15:40;;;;;;;2.80;1.83;;;;;;;;;;5039516;28;20241;-68
2022/02/21 01:18:08;;;;;;;2.30;1.80;;;;;;;;;;5036067;28;20299;-69
2022/02/21 01:20:36;;;;;;;2.77;1.77;;;;;;;;;;5039358;28;20270;-67
2022/02/21 01:23:04;;;;;;;1.83;1.60;;;;;;;;;;5039741;28;20235;-68
2022/02/21 01:25:32;;;;;;;3.30;1.93;;;;;;;;;;5039246;28;20255;-68
2022/02/21 01:28:00;;;;;;;1.50;1.40;;;;;;;;;;5039510;28;20294;-68
2022/02/21 01:30:28;;;;;;;2.37;1.77;;;;;;;;;;5039715;28;20267;-68
2022/02/21 01:32:57;;;;;;;6.97;1.67;;;;;;;;;;5039324;28;20663;-68
2022/02/21 01:35:25;;;;;;;2.90;1.57;;;;;;;;;;5039299;28;20314;-67
2022/02/21 01:37:53;;;;;;;3.17;1.77;;;;;;;;;;5038936;28;20242;-66
2022/02/21 01:40:22;;;;;;;1.63;1.33;;;;;;;;;;5030175;28;20224;-66
2022/02/21 01:42:50;;;;;;;2.23;1.50;;;;;;;;;;5018766;28;20291;-66
2022/02/21 01:45:18;;;;;;;3.60;1.73;;;;;;;;;;5019604;28;20314;-67
2022/02/21 01:47:46;;;;;;;3.07;1.97;;;;;;;;;;5019571;28;20272;-67
2022/02/21 01:50:16;;;;;;;1.60;1.50;;;;;;;;;;5019237;28;20267;-67
2022/02/21 01:52:44;;;;;;;3.30;1.90;;;;;;;;;;5019397;28;20236;-67
2022/02/21 01:55:12;;;;;;;3.13;1.40;;;;;;;;;;5019289;28;20250;-68
2022/02/21 01:57:41;;;;;;;2.67;1.97;;;;;;;;;;5019140;28;20295;-67
2022/02/21 02:00:10;;;;;;;2.27;1.73;;;;;;;;;;5019147;28;20228;-67
2022/02/21 02:02:39;;;;;;;3.03;1.67;;;;;;;;;;5019073;28;20236;-67
2022/02/21 02:05:07;;;;;;;1.60;1.50;;;;;;;;;;5018541;28;20274;-67
2022/02/21 02:07:37;;;;;;;3.87;1.70;;;;;;;;;;5025618;28;20713;-68
2022/02/21 02:10:07;;;;;;;2.23;1.80;;;;;;;;;;5038610;28;20311;-67
2022/02/21 02:12:35;;;;;;;2.67;1.53;;;;;;;;;;5038556;28;20342;-67
2022/02/21 02:15:03;;;;;;;2.20;1.50;;;;;;;;;;5038625;28;20293;-67
2022/02/21 02:17:31;;;;;;;1.33;1.13;;;;;;;;;;5038362;28;20674;-68
2022/02/21 02:19:59;;;;;;;1.80;1.70;;;;;;;;;;5038334;28;20242;-68
2022/02/21 02:22:29;;;;;;;2.33;1.50;;;;;;;;;;5038212;28;20247;-69
2022/02/21 02:24:57;;;;;;;3.60;1.70;;;;;;;;;;5038453;28;20286;-68
2022/02/21 02:27:25;;;;;;;1.60;1.50;;;;;;;;;;5038512;28;20243;-68
2022/02/21 02:29:55;;;;;;;2.27;1.20;;;;;;;;;;5038572;28;20290;-68
2022/02/21 02:32:23;;;;;;;1.40;1.30;;;;;;;;;;5038546;28;20283;-69
2022/02/21 02:34:52;;;;;;;5.43;1.90;;;;;;;;;;5038213;28;20295;-69
2022/02/21 02:37:21;;;;;;;1.53;1.30;;;;;;;;;;5038205;28;20241;-68
2022/02/21 02:39:50;;;;;;;3.70;1.70;;;;;;;;;;5038228;28;20231;-69
2022/02/21 02:42:18;;;;;;;1.87;1.33;;;;;;;;;;5019929;28;20311;-69
2022/02/21 02:44:46;;;;;;;1.50;1.40;;;;;;;;;;5018322;28;20287;-68
2022/02/21 02:47:15;;;;;;;1.63;1.20;;;;;;;;;;5018262;28;20263;-68
2022/02/21 02:49:43;;;;;;;2.20;1.37;;;;;;;;;;5018109;28;20313;-69
2022/02/21 02:52:11;;;;;;;1.40;1.30;;;;;;;;;;5018007;28;20231;-67
2022/02/21 02:54:39;;;;;;;2.57;1.57;;;;;;;;;;5017313;28;20248;-67
2022/02/21 02:57:09;;;;;;;1.80;1.37;;;;;;;;;;5024903;28;20227;-67
2022/02/21 02:59:37;;;;;;;3.03;1.60;;;;;;;;;;5037932;28;20242;-68
2022/02/21 03:02:05;;;;;;;2.33;1.17;;;;;;;;;;5037661;28;20282;-67
2022/02/21 03:04:33;;;;;;;4.97;2.07;;;;;;;;;;5037402;28;20287;-67
2022/02/21 03:07:01;;;;;;;4.00;1.53;;;;;;;;;;5037766;28;20262;-67
2022/02/21 03:09:29;;;;;;;1.43;1.30;;;;;;;;;;5037501;28;20258;-67
2022/02/21 03:11:57;;;;;;;2.53;1.50;;;;;;;;;;5037472;28;20773;-67
2022/02/21 03:14:27;;;;;;;3.97;1.33;;;;;;;;;;5037894;28;20243;-67
2022/02/21 03:16:55;;;;;;;4.90;1.60;;;;;;;;;;5037604;28;20266;-66
2022/02/21 03:19:25;;;;;;;4.33;1.50;;;;;;;;;;5037300;28;20239;-66
2022/02/21 03:21:55;;;;;;;4.87;1.70;;;;;;;;;;5037456;28;20223;-68
2022/02/21 03:24:23;;;;;;;2.90;1.60;;;;;;;;;;5037625;28;20262;-69
2022/02/21 03:26:51;;;;;;;2.10;1.50;;;;;;;;;;5037478;28;20734;-67
2022/02/21 03:29:19;;;;;;;1.90;1.10;;;;;;;;;;5037468;28;20290;-67
2022/02/21 03:31:48;;;;;;;2.77;1.57;;;;;;;;;;5037648;28;20286;-68
2022/02/21 03:34:16;;;;;;;2.00;1.20;;;;;;;;;;5037324;28;20316;-68
2022/02/21 03:36:44;;;;;;;5.17;1.60;;;;;;;;;;5036806;28;20302;-67
2022/02/21 03:39:12;;;;;;;2.73;1.30;;;;;;;;;;5037053;28;20875;-67
2022/02/21 03:41:40;;;;;;;3.20;1.30;;;;;;;;;;5027355;28;20319;-67
2022/02/21 03:44:08;;;;;;;2.23;1.33;;;;;;;;;;5017708;28;20242;-67
2022/02/21 03:46:41;;;;;;;3.63;1.57;;;;;;;;;;5017668;28;20315;-67
2022/02/21 03:49:11;;;;;;;2.20;1.27;;;;;;;;;;5017483;28;20208;-68
2022/02/21 03:51:40;;;;;;;2.63;1.07;;;;;;;;;;5017806;28;20292;-68
2022/02/21 03:54:08;;;;;;;2.43;1.20;;;;;;;;;;5032365;28;20212;-67
2022/02/21 03:56:37;;;;;;;2.10;1.07;;;;;;;;;;5037170;28;20263;-67
2022/02/21 03:59:05;;;;;;;2.17;1.13;;;;;;;;;;5037312;28;20294;-67
2022/02/21 04:01:33;;;;;;;2.37;1.03;;;;;;;;;;5036999;28;20641;-68
2022/02/21 04:04:01;;;;;;;1.73;1.40;;;;;;;;;;5036845;28;20290;-67
2022/02/21 04:06:30;;;;;;;2.27;1.20;;;;;;;;;;5039076;28;20270;-69
2022/02/21 04:08:58;;;;;;;2.67;1.23;;;;;;;;;;5040807;28;20231;-69
2022/02/21 04:11:26;;;;;;;3.60;1.30;;;;;;;;;;5040873;28;20295;-68
2022/02/21 04:13:54;;;;;;;3.53;1.40;;;;;;;;;;5041079;28;20208;-69
2022/02/21 04:16:22;;;;;;;1.87;1.23;;;;;;;;;;5040872;28;20251;-67
2022/02/21 04:18:50;;;;;;;2.80;1.17;;;;;;;;;;5040633;28;20283;-68
2022/02/21 04:21:18;;;;;;;3.03;1.57;;;;;;;;;;5040526;28;20331;-68
2022/02/21 04:23:48;;;;;;;3.67;1.13;;;;;;;;;;5040609;28;20639;-67
2022/02/21 04:26:16;;;;;;;2.60;1.30;;;;;;;;;;5040748;28;20314;-67
2022/02/21 04:28:49;;;;;;;2.90;1.30;;;;;;;;;;5028465;28;20212;-66
2022/02/21 04:31:18;;;;;;;3.27;1.43;;;;;;;;;;5040731;28;20235;-67
2022/02/21 04:33:46;;;;;;;5.27;1.33;;;;;;;;;;5040236;28;20644;-67
2022/02/21 04:36:15;;;;;;;1.87;1.20;;;;;;;;;;5040043;28;20307;-69
2022/02/21 04:38:44;;;;;;;3.60;1.20;;;;;;;;;;5040240;28;20235;-69
2022/02/21 04:41:13;;;;;;;4.07;1.37;;;;;;;;;;5021147;28;20211;-68
2022/02/21 04:43:41;;;;;;;2.70;1.20;;;;;;;;;;5020263;28;20246;-68
2022/02/21 04:46:09;;;;;;;3.07;1.30;;;;;;;;;;5020259;28;20322;-68
2022/02/21 04:48:37;;;;;;;1.90;1.37;;;;;;;;;;5020446;28;20291;-68
2022/02/21 04:51:05;;;;;;;3.00;1.00;;;;;;;;;;5027478;28;20235;-67
2022/02/21 04:53:33;;;;;;;1.47;1.13;;;;;;;;;;5040273;28;20286;-67
2022/02/21 04:56:01;;;;;;;1.33;1.20;;;;;;;;;;5040065;28;20315;-66
2022/02/21 04:58:31;;;;;;;2.87;1.60;;;;;;;;;;5040092;28;20290;-68
2022/02/21 05:00:59;;;;;;;1.70;1.20;;;;;;;;;;5040307;28;20246;-68
2022/02/21 05:03:27;;;;;;;2.90;1.43;;;;;;;;;;5039661;28;20560;-69
2022/02/21 05:05:55;;;;;;;3.03;1.10;;;;;;;;;;5039937;28;20258;-67
2022/02/21 05:08:23;;;;;;;4.50;2.10;;;;;;;;;;5039577;28;20290;-68
2022/02/21 05:10:51;;;;;;;1.67;1.30;;;;;;;;;;5039827;28;20323;-68
2022/02/21 05:13:19;;;;;;;2.20;1.20;;;;;;;;;;5039911;28;20238;-68
2022/02/21 05:15:48;;;;;;;1.73;1.20;;;;;;;;;;5039557;28;20287;-66
2022/02/21 05:18:16;;;;;;;4.30;1.57;;;;;;;;;;5038517;28;20275;-66
2022/02/21 05:20:44;;;;;;;2.07;1.50;;;;;;;;;;5039742;28;20294;-67
2022/02/21 05:23:12;;;;;;;1.10;1.10;;;;;;;;;;5039225;28;20798;-66
2022/02/21 05:25:40;;;;;;;4.57;1.83;;;;;;;;;;5039414;28;20745;-67
2022/02/21 05:28:08;;;;;;;4.00;1.40;;;;;;;;;;5039572;28;20246;-62
2022/02/21 05:30:36;;;;;;;1.67;1.57;;;;;;;;;;5039495;28;20298;-67
2022/02/21 05:33:05;;;;;;;6.00;2.07;;;;;;;;;;5039238;28;20619;-66
2022/02/21 05:35:33;;;;;;;4.17;2.10;;;;;;;;;;5038736;28;20234;-67
2022/02/21 05:38:01;;;;;;;2.23;1.90;;;;;;;;;;5031246;28;20681;-67
2022/02/21 05:40:29;;;;;;;8.53;3.90;;;;;;;;;;5029058;28;20246;-67
2022/02/21 05:42:57;;;;;;;2.97;2.43;;;;;;;;;;5029823;28;20314;-67
2022/02/21 05:45:25;;;;;;;2.63;1.93;;;;;;;;;;5026370;28;20307;-67
2022/02/21 05:47:53;;;;;;;4.93;1.80;;;;;;;;;;5029036;28;20287;-66
2022/02/21 05:50:23;;;;;;;3.23;1.37;;;;;;;;;;5028257;28;20232;-66
2022/02/21 05:52:51;;;;;;;2.13;1.43;;;;;;;;;;5029762;28;20239;-66
2022/02/21 05:55:19;;;;;;;3.43;1.70;;;;;;;;;;5032145;28;20251;-67
2022/02/21 05:57:47;;;;;;;2.87;1.50;;;;;;;;;;5034478;28;20299;-67
2022/02/21 06:00:15;;;;;;;4.77;1.70;;;;;;;;;;5030078;28;20291;-66
2022/02/21 06:02:43;;;;;;;4.90;1.60;;;;;;;;;;5030792;28;20219;-67
2022/02/21 06:05:11;;;;;;;2.17;1.30;;;;;;;;;;5032160;28;20279;-67
2022/02/21 06:07:41;;;;;;;2.60;1.67;;;;;;;;;;5028604;28;20813;-66
2022/02/21 06:10:09;;;;;;;2.60;1.30;;;;;;;;;;5031813;28;20266;-68
2022/02/21 06:12:37;;;;;;;3.20;1.37;;;;;;;;;;5026822;28;20675;-67
2022/02/21 06:15:05;;;;;;;2.80;1.53;;;;;;;;;;5029436;28;20238;-66
2022/02/21 06:17:33;;;;;;;6.70;1.47;;;;;;;;;;5026733;28;20232;-66
2022/02/21 06:20:02;;;;;;;3.00;1.20;;;;;;;;;;5031251;28;20235;-66
2022/02/21 06:22:30;;;;;;;3.70;1.77;;;;;;;;;;5031282;28;20762;-66
2022/02/21 06:24:59;;;;;;;3.57;1.33;;;;;;;;;;5029125;28;20219;-66
2022/02/21 06:27:27;;;;;;;2.97;1.33;;;;;;;;;;5029899;28;20196;-67
2022/02/21 06:29:55;;;;;;;3.73;1.37;;;;;;;;;;5034873;28;20266;-67
2022/02/21 06:32:23;;;;;;;4.33;1.77;;;;;;;;;;5037543;28;20243;-64
2022/02/21 06:34:51;;;;;;;2.57;1.40;;;;;;;;;;5025517;28;20310;-66
2022/02/21 06:37:20;;;;;;;4.60;1.50;;;;;;;;;;5037779;28;20303;-66
2022/02/21 06:39:48;;;;;;;2.23;1.90;;;;;;;;;;5030671;28;20231;-65
2022/02/21 06:42:17;;;;;;;1.50;1.40;;;;;;;;;;5037836;28;20302;-65
2022/02/21 06:44:45;;;;;;;2.47;1.33;;;;;;;;;;5037936;28;20653;-66
2022/02/21 06:47:13;;;;;;;2.03;1.47;;;;;;;;;;5037935;28;20315;-66
2022/02/21 06:49:41;;;;;;;4.83;1.77;;;;;;;;;;5037702;28;20293;-65
2022/02/21 06:52:09;;;;;;;3.33;2.10;;;;;;;;;;5037797;28;20235;-65
2022/02/21 06:54:37;;;;;;;2.73;1.47;;;;;;;;;;5038062;28;20286;-66
2022/02/21 06:57:05;;;;;;;7.10;1.73;;;;;;;;;;5037804;28;20263;-66
2022/02/21 06:59:35;;;;;;;6.80;2.30;;;;;;;;;;5036148;28;20314;-67
2022/02/21 07:02:03;;;;;;;10.77;2.07;;;;;;;;;;5028746;28;20290;-68
2022/02/21 07:04:31;;;;;;;12.20;2.63;;;;;;;;;;5034358;28;20219;-66
2022/02/21 07:06:59;;;;;;;7.33;2.40;;;;;;;;;;5037192;28;20663;-66
2022/02/21 07:09:27;;;;;;;7.20;2.27;;;;;;;;;;5036528;28;20235;-66
2022/02/21 07:11:55;;;;;;;9.70;3.10;;;;;;;;;;5036462;28;20232;-68
2022/02/21 07:14:23;;;;;;;11.77;2.80;;;;;;;;;;5035478;28;20212;-66
2022/02/21 07:16:53;;;;;;;5.30;1.93;;;;;;;;;;5036417;28;20726;-66
2022/02/21 07:19:24;;;;;;;6.77;1.97;;;;;;;;;;5036875;28;20214;-66
2022/02/21 07:21:52;;;;;;;5.57;2.10;;;;;;;;;;5034037;28;20210;-65
2022/02/21 07:24:20;;;;;;;8.70;2.50;;;;;;;;;;5035572;28;20250;-65
2022/02/21 07:26:48;;;;;;;7.87;2.43;;;;;;;;;;5035237;28;20227;-65
2022/02/21 07:29:16;;;;;;;8.37;2.03;;;;;;;;;;5035024;28;20286;-66
2022/02/21 07:31:44;;;;;;;11.27;2.10;;;;;;;;;;5034504;28;20214;-65
2022/02/21 07:34:13;;;;;;;6.87;2.13;;;;;;;;;;5026798;28;20684;-64
2022/02/21 07:36:41;;;;;;;12.50;3.00;;;;;;;;;;5028577;28;20376;-65
2022/02/21 07:39:09;;;;;;;7.93;2.10;;;;;;;;;;5036471;28;20227;-64
2022/02/21 07:41:39;;;;;;;12.17;2.83;;;;;;;;;;5036125;28;20631;-65
2022/02/21 07:44:07;;;;;;;8.50;3.00;;;;;;;;;;5038976;28;20220;-66
2022/02/21 07:46:35;;;;;;;14.03;3.30;;;;;;;;;;5035813;28;20258;-66
2022/02/21 07:49:04;;;;;;;13.90;3.40;;;;;;;;;;5038124;28;20278;-65
2022/02/21 07:51:33;;;;;;;13.60;2.70;;;;;;;;;;5035848;28;20234;-66
2022/02/21 07:54:01;;;;;;;6.07;2.37;;;;;;;;;;5037327;28;20246;-65
2022/02/21 07:56:49;;;;;;;10.23;2.57;;;;;;;;;;5038616;28;20234;-65
2022/02/21 07:59:18;;;;;;;10.70;2.40;;;;;;;;;;5039336;28;20259;-65
2022/02/21 08:01:46;;;;;;;11.67;2.53;;;;;;;;;;5036607;28;20290;-65
2022/02/21 08:04:14;;;;;;;17.33;3.30;;;;;;;;;;5037357;28;20245;-64
2022/02/21 08:06:43;;;;;;;9.17;3.03;;;;;;;;;;5037811;28;20219;-65
2022/02/21 08:09:11;;;;;;;8.57;3.20;;;;;;;;;;5038485;28;20235;-65
2022/02/21 08:11:39;;;;;;;16.07;3.00;;;;;;;;;;5039609;28;20227;-64
2022/02/21 08:14:07;;;;;;;11.40;2.70;;;;;;;;;;5039422;28;20227;-65
2022/02/21 08:16:35;;;;;;;9.20;2.37;;;;;;;;;;5040051;28;20266;-65
2022/02/21 08:19:03;;;;;;;9.03;2.37;;;;;;;;;;5036350;28;20785;-65
2022/02/21 08:21:31;;;;;;;11.37;2.60;;;;;;;;;;5032528;28;20678;-65
2022/02/21 08:24:01;;;;;;;14.70;2.77;;;;;;;;;;5036880;28;20306;-67
2022/02/21 08:26:30;;;;;;;16.63;3.33;;;;;;;;;;5036741;28;20251;-66
2022/02/21 08:28:58;;;;;;;11.03;2.73;;;;;;;;;;5038273;28;20204;-66
2022/02/21 08:31:26;;;;;;;12.97;3.17;;;;;;;;;;5038330;28;20282;-65
2022/02/21 08:33:54;;;;;;;13.60;2.73;;;;;;;;;;5035524;28;20205;-66
2022/02/21 08:36:25;;;;;;;13.00;3.40;;;;;;;;;;5037453;28;20625;-65
2022/02/21 08:38:53;;;;;;;10.73;2.87;;;;;;;;;;5039565;28;20253;-65
2022/02/21 08:41:23;;;;;;;11.97;2.63;;;;;;;;;;5039525;28;20739;-66
2022/02/21 08:43:51;;;;;;;12.73;2.83;;;;;;;;;;5038583;28;20717;-65
2022/02/21 08:46:19;;;;;;;16.50;3.80;;;;;;;;;;5038092;28;20647;-66
2022/02/21 08:49:02;;;;;;;11.90;2.63;;;;;;;;;;5036343;28;20208;-65
2022/02/21 08:51:30;;;;;;;16.27;2.53;;;;;;;;;;5035190;28;20200;-64
2022/02/21 08:53:58;;;;;;;14.83;3.53;;;;;;;;;;5035314;28;20264;-66
2022/02/21 08:56:33;;;;;;;13.37;2.90;;;;;;;;;;5034650;28;20262;-65
2022/02/21 08:59:01;;;;;;;15.40;2.70;;;;;;;;;;5038723;28;20286;-65
2022/02/21 09:01:29;;;;;;;13.20;3.20;;;;;;;;;;5036392;28;20713;-65
2022/02/21 09:03:57;;;;;;;13.97;3.57;;;;;;;;;;5035618;28;20278;-65
2022/02/21 09:06:26;;;;;;;14.70;2.83;;;;;;;;;;5036915;28;20223;-66
2022/02/21 09:08:54;;;;;;;12.77;3.03;;;;;;;;;;5039043;28;20227;-65
2022/02/21 09:11:22;;;;;;;14.70;2.63;;;;;;;;;;5038312;28;20310;-66
2022/02/21 09:13:52;;;;;;;15.37;2.90;;;;;;;;;;5036642;28;20290;-65
2022/02/21 09:16:20;;;;;;;18.70;4.43;;;;;;;;;;5036839;28;20317;-65
2022/02/21 09:18:48;;;;;;;13.57;3.70;;;;;;;;;;5038183;28;20290;-65
2022/02/21 09:21:16;;;;;;;8.77;2.73;;;;;;;;;;5036075;28;20231;-64
2022/02/21 09:23:44;;;;;;;11.33;2.97;;;;;;;;;;5038910;28;20248;-65
2022/02/21 09:26:12;;;;;;;17.43;3.80;;;;;;;;;;5033992;28;20330;-64
2022/02/21 09:28:40;;;;;;;12.00;3.60;;;;;;;;;;5037533;28;20207;-64
2022/02/21 09:31:10;;;;;;;16.50;3.30;;;;;;;;;;5037711;28;20204;-64
2022/02/21 09:33:38;;;;;;;14.70;3.23;;;;;;;;;;5037536;28;20234;-64
2022/02/21 09:36:06;;;;;;;9.73;2.80;;;;;;;;;;5036525;28;20265;-64
2022/02/21 09:38:34;;;;;;;12.70;3.10;;;;;;;;;;5037413;28;20637;-65
2022/02/21 09:41:03;;;;;;;9.50;2.60;;;;;;;;;;5022604;28;20205;-65
2022/02/21 09:43:31;;;;;;;21.63;3.60;;;;;;;;;;5021559;28;20268;-64
2022/02/21 09:46:00;;;;;;;18.30;3.10;;;;;;;;;;5019941;28;20238;-65
2022/02/21 09:48:30;;;;;;;12.57;3.27;;;;;;;;;;5021114;28;20223;-64
2022/02/21 09:51:00;;;;;;;13.53;2.50;;;;;;;;;;5038298;28;20299;-64
2022/02/21 09:53:29;;;;;;;16.73;3.00;;;;;;;;;;5036512;28;20199;-65
2022/02/21 09:55:57;;;;;;;9.67;2.43;;;;;;;;;;5036898;28;20215;-64
2022/02/21 09:58:26;;;;;;;12.40;3.00;;;;;;;;;;5033770;28;20275;-64
2022/02/21 10:00:54;;;;;;;17.20;3.07;;;;;;;;;;5019113;28;20295;-64
2022/02/21 10:03:49;;;;;;;10.03;2.30;;;;;;;;;;5018272;28;20212;-64
2022/02/21 10:06:20;;;;;;;10.53;2.40;;;;;;;;;;4989912;28;20327;-65
2022/02/21 10:08:56;;;;;;;11.03;2.80;;;;;;;;;;5038249;28;20218;-66
2022/02/21 10:11:40;;;;;;;15.03;3.27;;;;;;;;;;5035428;28;20295;-65
2022/02/21 10:14:09;;;;;;;16.43;2.93;;;;;;;;;;5037444;28;20621;-65
2022/02/21 10:16:39;;;;;;;14.53;3.20;;;;;;;;;;5037434;28;20247;-65
2022/02/21 10:19:14;;;;;;;8.30;2.20;;;;;;;;;;5037690;28;20227;-64
2022/02/21 10:22:05;;;;;;;14.40;2.70;;;;;;;;;;5035241;28;20649;-64
2022/02/21 10:24:43;;;;;;;11.37;2.77;;;;;;;;;;5034613;28;20266;-65
2022/02/21 10:27:12;;;;;;;9.10;2.87;;;;;;;;;;5035381;28;20219;-64
2022/02/21 10:29:47;;;;;;;16.33;3.33;;;;;;;;;;5036750;28;20668;-64
2022/02/21 10:32:16;;;;;;;8.53;3.63;;;;;;;;;;5034477;28;20249;-64
2022/02/21 10:34:45;;;;;;;13.93;3.07;;;;;;;;;;5033871;28;20228;-64
2022/02/21 10:37:19;;;;;;;12.73;2.97;;;;;;;;;;5033235;28;20232;-66
2022/02/21 10:39:47;;;;;;;13.40;2.63;;;;;;;;;;5038055;28;20295;-64
2022/02/21 10:42:25;;;;;;;15.23;3.37;;;;;;;;;;5037040;28;20231;-64
2022/02/21 10:44:53;;;;;;;10.60;3.07;;;;;;;;;;5035943;28;20212;-64
2022/02/21 10:47:21;;;;;;;13.67;3.30;;;;;;;;;;5033997;28;20208;-65
2022/02/21 10:49:52;;;;;;;14.53;2.77;;;;;;;;;;5036842;28;20199;-65
2022/02/21 10:52:23;;;;;;;12.37;3.33;;;;;;;;;;5036285;28;20223;-67
2022/02/21 10:54:51;;;;;;;11.47;2.53;;;;;;;;;;5035958;28;20235;-67
2022/02/21 10:57:22;;;;;;;11.73;3.00;;;;;;;;;;5033604;28;20577;-65
2022/02/21 10:59:51;;;;;;;18.40;3.80;;;;;;;;;;5035522;28;20282;-67
2022/02/21 11:02:20;;;;;;;15.00;3.67;;;;;;;;;;5034751;28;20275;-66
2022/02/21 11:04:48;;;;;;;12.27;2.70;;;;;;;;;;5036403;28;20246;-65
2022/02/21 11:07:16;;;;;;;12.00;2.53;;;;;;;;;;5037324;28;20228;-66
2022/02/21 11:09:48;;;;;;;12.77;3.73;;;;;;;;;;5037480;28;20226;-66
2022/02/21 11:12:17;;;;;;;13.80;2.83;;;;;;;;;;5037139;28;20745;-66
2022/02/21 11:14:46;;;;;;;12.67;2.80;;;;;;;;;;5036065;28;20295;-65
2022/02/21 11:17:14;;;;;;;17.07;3.67;;;;;;;;;;5035649;28;20655;-64
2022/02/21 11:19:43;;;;;;;16.17;3.97;;;;;;;;;;5036777;28;20387;-65
2022/02/21 11:22:11;;;;;;;13.77;3.70;;;;;;;;;;5037178;28;20572;-65
2022/02/21 11:24:48;;;;;;;16.27;3.23;;;;;;;;;;5036869;28;20235;-64
2022/02/21 11:27:20;;;;;;;12.40;3.83;;;;;;;;;;5037311;28;20317;-65
2022/02/21 11:29:53;;;;;;;16.50;3.43;;;;;;;;;;5037127;28;20243;-65
2022/02/21 11:32:21;;;;;;;16.33;2.70;;;;;;;;;;5037407;28;20249;-65
2022/02/21 11:35:10;;;;;;;15.70;3.70;;;;;;;;;;5037183;28;20291;-66
2022/02/21 11:37:38;;;;;;;12.47;2.93;;;;;;;;;;5035341;28;20671;-65
2022/02/21 11:40:07;;;;;;;14.13;3.10;;;;;;;;;;5017538;28;20290;-65
2022/02/21 11:42:49;;;;;;;11.80;2.87;;;;;;;;;;5017551;28;20212;-65
2022/02/21 11:45:25;;;;;;;11.50;2.87;;;;;;;;;;5017408;28;20264;-65
2022/02/21 11:47:57;;;;;;;10.23;2.90;;;;;;;;;;5017299;28;20286;-65
2022/02/21 11:50:27;;;;;;;12.40;3.10;;;;;;;;;;5023949;28;20206;-65
2022/02/21 11:52:56;;;;;;;9.73;3.00;;;;;;;;;;5017738;28;20683;-65
2022/02/21 11:55:40;;;;;;;16.40;3.10;;;;;;;;;;5037100;28;20258;-65
2022/02/21 11:58:28;;;;;;;12.73;2.97;;;;;;;;;;5036927;28;20239;-64
2022/02/21 12:00:57;;;;;;;15.00;2.87;;;;;;;;;;5036785;28;20238;-65
2022/02/21 12:03:26;;;;;;;11.47;2.60;;;;;;;;;;5036873;28;20567;-66
2022/02/21 12:06:09;;;;;;;11.40;2.87;;;;;;;;;;5036772;28;20235;-64
2022/02/21 12:09:01;;;;;;;8.63;2.63;;;;;;;;;;5036713;28;20581;-64
2022/02/21 12:11:30;;;;;;;14.47;3.13;;;;;;;;;;5036501;28;20808;-64
2022/02/21 12:14:18;;;;;;;15.10;3.23;;;;;;;;;;5036787;28;20238;-66
2022/02/21 12:17:16;;;;;;;10.10;2.43;;;;;;;;;;5036954;28;20303;-65
2022/02/21 12:19:45;;;;;;;15.00;2.97;;;;;;;;;;5032011;28;20227;-62
2022/02/21 12:22:15;;;;;;;8.33;2.77;;;;;;;;;;5033321;28;20223;-61
2022/02/21 12:25:02;;;;;;;10.70;2.20;;;;;;;;;;5035647;28;20279;-65
2022/02/21 12:27:30;;;;;;;9.53;3.00;;;;;;;;;;5034505;28;20266;-65
2022/02/21 12:29:57;;;;;;;9.43;2.20;;;;;;;;;;5028124;28;20239;-65
2022/02/21 12:32:27;;;;;;;6.17;1.90;;;;;;;;;;5020442;28;20291;-65
2022/02/21 12:34:57;;;;;;;3.77;1.93;;;;;;;;;;5020498;28;20241;-65
2022/02/21 12:37:25;;;;;;;9.83;2.20;;;;;;;;;;5038217;28;20211;-65
2022/02/21 12:39:53;;;;;;;8.73;2.57;;;;;;;;;;5040907;28;20207;-66
2022/02/21 12:42:24;;;;;;;5.23;1.97;;;;;;;;;;5039918;28;20286;-66
2022/02/21 12:44:55;;;;;;;11.93;2.70;;;;;;;;;;5040189;28;20207;-66
2022/02/21 12:47:23;;;;;;;7.63;2.20;;;;;;;;;;5039823;28;20718;-65
2022/02/21 12:50:06;;;;;;;9.53;2.27;;;;;;;;;;5028454;28;20219;-66
2022/02/21 12:52:33;;;;;;;4.20;1.77;;;;;;;;;;5020075;28;20250;-66
2022/02/21 12:55:01;;;;;;;11.43;2.43;;;;;;;;;;5020004;28;20239;-66
2022/02/21 12:57:32;;;;;;;12.40;2.60;;;;;;;;;;5020219;28;20228;-65
2022/02/21 13:00:00;;;;;;;11.57;2.63;;;;;;;;;;5036530;28;20257;-65
2022/02/21 13:02:32;;;;;;;6.23;2.77;;;;;;;;;;5038204;28;20222;-64
2022/02/21 13:05:05;;;;;;;10.20;3.33;;;;;;;;;;5036508;28;20203;-66
2022/02/21 13:07:33;;;;;;;7.63;3.07;;;;;;;;;;5037509;28;20219;-66
2022/02/21 13:10:04;;;;;;;9.97;2.70;;;;;;;;;;5038967;28;20287;-65
2022/02/21 13:12:32;;;;;;;6.33;1.80;;;;;;;;;;5038272;28;20204;-64
2022/02/21 13:15:00;;;;;;;9.73;2.63;;;;;;;;;;5035115;28;20279;-64
2022/02/21 13:17:30;;;;;;;8.03;1.60;;;;;;;;;;5039258;28;20627;-65
2022/02/21 13:20:01;;;;;;;6.53;1.67;;;;;;;;;;5037517;28;20235;-65
2022/02/21 13:22:31;;;;;;;5.60;1.97;;;;;;;;;;5039556;28;20242;-65
2022/02/21 13:25:02;;;;;;;6.13;1.80;;;;;;;;;;5039777;28;20298;-65
2022/02/21 13:27:32;;;;;;;6.23;2.00;;;;;;;;;;5039850;28;20314;-66
2022/02/21 13:30:03;;;;;;;9.50;2.07;;;;;;;;;;5039622;28;20290;-66
2022/02/21 13:32:33;;;;;;;6.40;1.57;;;;;;;;;;5029026;28;20278;-66
2022/02/21 13:35:09;;;;;;;5.37;2.13;;;;;;;;;;5038221;28;20199;-67
2022/02/21 13:37:40;;;;;;;6.03;1.90;;;;;;;;;;5035779;28;20192;-67
2022/02/21 13:40:09;;;;;;;5.50;1.77;;;;;;;;;;5036472;28;20224;-67
2022/02/21 13:42:38;;;;;;;10.77;2.70;;;;;;;;;;5037170;28;20682;-67
2022/02/21 13:45:15;;;;;;;7.27;1.77;;;;;;;;;;5037895;28;20200;-67
2022/02/21 13:47:43;;;;;;;9.43;2.53;;;;;;;;;;5036791;28;20226;-67
2022/02/21 13:50:26;;;;;;;7.13;1.90;;;;;;;;;;5036981;28;20207;-67
2022/02/21 13:52:56;;;;;;;5.93;1.70;;;;;;;;;;5030313;28;20236;-67
2022/02/21 13:55:25;;;;;;;6.40;1.80;;;;;;;;;;5038243;28;20291;-67
2022/02/21 13:57:59;;;;;;;7.80;2.50;;;;;;;;;;5035905;28;20254;-67
2022/02/21 14:00:34;;;;;;;14.90;2.33;;;;;;;;;;5037756;28;20199;-67
2022/02/21 14:03:02;;;;;;;8.83;1.87;;;;;;;;;;5035706;28;20229;-67
2022/02/21 14:05:30;;;;;;;7.10;1.73;;;;;;;;;;5035580;28;20310;-67
2022/02/21 14:07:59;;;;;;;5.50;1.47;;;;;;;;;;5036159;28;20307;-67
2022/02/21 14:10:27;;;;;;;6.23;1.80;;;;;;;;;;5036567;28;20707;-66
2022/02/21 14:12:56;;;;;;;5.73;1.83;;;;;;;;;;5038309;28;20250;-64
2022/02/21 14:15:24;;;;;;;5.07;1.60;;;;;;;;;;5033890;28;20226;-65
2022/02/21 14:17:52;;;;;;;6.57;1.77;;;;;;;;;;5036465;28;20297;-68
2022/02/21 14:20:20;;;;;;;5.80;1.97;;;;;;;;;;5036715;28;20203;-68
2022/02/21 14:23:01;;;;;;;5.70;2.10;;;;;;;;;;5038223;28;20203;-67
2022/02/21 14:25:29;;;;;;;7.30;1.67;;;;;;;;;;5034959;28;20262;-68
2022/02/21 14:27:57;;;;;;;8.30;1.83;;;;;;;;;;5034507;28;20662;-68
2022/02/21 14:30:27;;;;;;;5.93;1.90;;;;;;;;;;5034267;28;20234;-68
2022/02/21 14:32:55;;;;;;;5.93;1.53;;;;;;;;;;5036857;28;20199;-68
2022/02/21 14:35:37;;;;;;;9.97;1.97;;;;;;;;;;5034331;28;20223;-69
2022/02/21 14:38:07;;;;;;;11.40;2.00;;;;;;;;;;5035253;28;20196;-67
2022/02/21 14:40:35;;;;;;;4.23;1.83;;;;;;;;;;5022924;28;20251;-67
2022/02/21 14:43:04;;;;;;;8.93;2.10;;;;;;;;;;5018210;28;20235;-68
2022/02/21 14:45:32;;;;;;;20.10;2.90;;;;;;;;;;5018027;28;20260;-68
2022/02/21 14:48:00;;;;;;;8.10;2.10;;;;;;;;;;5018042;28;20315;-68
2022/02/21 14:50:28;;;;;;;8.90;2.27;;;;;;;;;;5036554;28;20231;-66
2022/02/21 14:52:56;;;;;;;5.90;2.40;;;;;;;;;;5034249;28;20254;-66